createdAt,value
2018-03-23T00:00:42.304Z,100173
2018-03-23T00:03:10.486Z,100164
2018-03-23T00:05:39.477Z,100157
2018-03-23T00:08:07.732Z,100172
2018-03-23T00:10:35.923Z,100165
2018-03-23T00:13:04.114Z,100152
2018-03-23T00:15:32.346Z,100165
2018-03-23T00:18:00.542Z,100160
2018-03-23T00:20:29.081Z,100161
2018-03-23T00:22:57.565Z,100161
2018-03-23T00:25:25.729Z,100157
2018-03-23T00:27:53.907Z,100162
2018-03-23T00:30:22.245Z,100169
2018-03-23T00:32:50.489Z,100171
2018-03-23T00:35:18.682Z,100176
2018-03-23T00:37:46.853Z,100181
2018-03-23T00:40:15.099Z,100180
2018-03-23T00:42:43.373Z,100175
2018-03-23T00:45:11.574Z,100181
2018-03-23T00:47:39.805Z,100172
2018-03-23T00:50:08.003Z,100175
2018-03-23T00:52:36.200Z,100174
2018-03-23T00:55:04.500Z,100167
2018-03-23T00:57:33.536Z,100161
2018-03-23T01:00:01.740Z,100171
2018-03-23T01:02:29.916Z,100159
2018-03-23T01:04:58.113Z,100163
2018-03-23T01:07:27.134Z,100152
2018-03-23T01:09:55.342Z,100152
2018-03-23T01:12:23.557Z,100149
2018-03-23T01:14:52.531Z,100161
2018-03-23T01:17:20.711Z,100151
2018-03-23T01:19:48.931Z,100154
2018-03-23T01:22:17.114Z,100156
2018-03-23T01:24:45.442Z,100163
2018-03-23T01:27:14.477Z,100167
2018-03-23T01:29:42.697Z,100157
2018-03-23T01:32:10.878Z,100155
2018-03-23T01:34:39.859Z,100156
2018-03-23T01:37:08.034Z,100118
2018-03-23T01:39:36.237Z,100155
2018-03-23T01:42:04.412Z,100157
2018-03-23T01:44:33.402Z,100153
2018-03-23T01:47:01.638Z,100153
2018-03-23T01:49:29.839Z,100149
2018-03-23T01:51:58.787Z,100146
2018-03-23T01:54:26.976Z,100146
2018-03-23T01:56:55.274Z,100141
2018-03-23T01:59:23.446Z,100145
2018-03-23T02:01:52.393Z,100143
2018-03-23T02:04:20.620Z,100138
2018-03-23T02:06:49.642Z,100136
2018-03-23T02:09:17.848Z,100137
2018-03-23T02:11:46.046Z,100140
2018-03-23T02:14:14.992Z,100133
2018-03-23T02:16:43.281Z,100128
2018-03-23T02:19:11.448Z,100120
2018-03-23T02:21:39.648Z,100130
2018-03-23T02:24:08.000Z,100128
2018-03-23T02:26:36.183Z,100127
2018-03-23T02:29:04.355Z,100119
2018-03-23T02:31:32.611Z,100118
2018-03-23T02:34:00.852Z,100117
2018-03-23T02:36:29.040Z,100115
2018-03-23T02:38:57.239Z,100123
2018-03-23T02:41:25.430Z,100115
2018-03-23T02:43:53.709Z,100108
2018-03-23T02:46:21.902Z,100112
2018-03-23T02:48:50.873Z,100109
2018-03-23T02:51:19.076Z,100104
2018-03-23T02:53:47.274Z,100103
2018-03-23T02:56:15.470Z,100103
2018-03-23T02:58:43.696Z,100101
2018-03-23T03:01:12.684Z,100088
2018-03-23T03:03:41.691Z,100095
2018-03-23T03:06:09.953Z,100088
2018-03-23T03:08:38.912Z,100083
2018-03-23T03:11:07.098Z,100103
2018-03-23T03:13:35.303Z,100100
2018-03-23T03:16:03.480Z,100102
2018-03-23T03:18:31.658Z,100100
2018-03-23T03:20:59.829Z,100096
2018-03-23T03:23:28.013Z,100089
2018-03-23T03:25:56.238Z,100093
2018-03-23T03:28:24.464Z,100085
2018-03-23T03:30:52.724Z,100086
2018-03-23T03:33:20.943Z,100076
2018-03-23T03:35:49.127Z,100078
2018-03-23T03:38:17.416Z,100080
2018-03-23T03:40:45.594Z,100069
2018-03-23T03:43:13.843Z,100085
2018-03-23T03:45:42.019Z,100075
2018-03-23T03:48:10.355Z,100065
2018-03-23T03:50:38.600Z,100073
2018-03-23T03:53:07.557Z,100073
2018-03-23T03:55:35.746Z,100067
2018-03-23T03:58:03.929Z,100074
2018-03-23T04:00:32.897Z,100067
2018-03-23T04:03:01.076Z,100064
2018-03-23T04:05:29.270Z,100058
2018-03-23T04:07:57.479Z,100055
2018-03-23T04:10:25.662Z,100051
2018-03-23T04:12:53.880Z,100049
2018-03-23T04:15:22.121Z,100041
2018-03-23T04:17:50.322Z,100047
2018-03-23T04:20:19.274Z,100044
2018-03-23T04:22:47.489Z,100056
2018-03-23T04:25:15.662Z,100046
2018-03-23T04:27:44.613Z,100048
2018-03-23T04:30:12.794Z,100037
2018-03-23T04:32:40.992Z,100043
2018-03-23T04:35:09.274Z,100042
2018-03-23T04:37:37.458Z,100036
2018-03-23T04:40:05.643Z,100034
2018-03-23T04:42:34.586Z,100038
2018-03-23T04:45:02.787Z,100034
2018-03-23T04:47:30.971Z,100039
2018-03-23T04:49:59.162Z,100036
2018-03-23T04:52:28.139Z,100030
2018-03-23T04:54:56.363Z,100035
2018-03-23T04:57:24.597Z,100033
2018-03-23T04:59:53.578Z,100034
2018-03-23T05:02:22.630Z,100029
2018-03-23T05:04:50.856Z,100030
2018-03-23T05:07:19.915Z,100029
2018-03-23T05:09:48.198Z,100028
2018-03-23T05:12:16.434Z,100024
2018-03-23T05:14:44.676Z,100027
2018-03-23T05:17:13.614Z,100023
2018-03-23T05:19:41.810Z,100028
2018-03-23T05:22:10.786Z,100035
2018-03-23T05:24:39.113Z,100031
2018-03-23T05:27:08.098Z,100036
2018-03-23T05:29:37.138Z,100041
2018-03-23T05:32:05.331Z,100041
2018-03-23T05:34:33.528Z,100039
2018-03-23T05:37:01.784Z,100039
2018-03-23T05:39:30.069Z,100035
2018-03-23T05:41:58.367Z,100032
2018-03-23T05:44:27.304Z,100041
2018-03-23T05:46:55.481Z,100032
2018-03-23T05:49:23.643Z,100031
2018-03-23T05:51:51.870Z,100039
2018-03-23T05:54:20.827Z,100037
2018-03-23T05:56:49.005Z,100035
2018-03-23T05:59:17.258Z,100035
2018-03-23T06:01:45.449Z,100037
2018-03-23T06:04:13.658Z,100031
2018-03-23T06:06:42.664Z,100029
2018-03-23T06:09:10.868Z,100034
2018-03-23T06:11:39.106Z,100032
2018-03-23T06:14:08.191Z,100033
2018-03-23T06:16:37.167Z,100023
2018-03-23T06:19:05.355Z,100032
2018-03-23T06:21:33.665Z,100021
2018-03-23T06:24:01.930Z,100021
2018-03-23T06:26:30.199Z,100027
2018-03-23T06:28:59.136Z,100027
2018-03-23T06:31:27.327Z,100027
2018-03-23T06:33:55.532Z,100024
2018-03-23T06:36:24.499Z,100025
2018-03-23T06:38:52.675Z,100022
2018-03-23T06:41:20.946Z,100021
2018-03-23T06:43:49.128Z,100026
2018-03-23T06:46:17.421Z,100018
2018-03-23T06:48:45.698Z,100022
2018-03-23T06:51:13.879Z,100027
2018-03-23T06:53:42.118Z,100024
2018-03-23T06:56:10.445Z,100018
2018-03-23T06:58:38.704Z,100014
2018-03-23T07:01:06.954Z,100018
2018-03-23T07:03:35.121Z,100020
2018-03-23T07:06:03.278Z,100019
2018-03-23T07:08:31.564Z,100017
2018-03-23T07:10:59.842Z,100021
2018-03-23T07:13:27.971Z,100015
2018-03-23T07:15:56.205Z,100019
2018-03-23T07:18:25.182Z,100028
2018-03-23T07:20:53.356Z,100026
2018-03-23T07:23:21.581Z,100019
2018-03-23T07:25:49.762Z,100016
2018-03-23T07:28:17.986Z,100016
2018-03-23T07:30:46.951Z,100011
2018-03-23T07:33:15.141Z,100015
2018-03-23T07:35:43.327Z,100009
2018-03-23T07:38:12.299Z,100014
2018-03-23T07:40:40.487Z,100004
2018-03-23T07:43:09.431Z,100010
2018-03-23T07:45:37.663Z,100004
2018-03-23T07:48:06.639Z,100003
2018-03-23T07:50:34.864Z,99997
2018-03-23T07:53:03.060Z,99993
2018-03-23T07:55:31.281Z,99999
2018-03-23T07:58:00.362Z,99997
2018-03-23T08:00:28.617Z,99997
2018-03-23T08:02:56.886Z,100001
2018-03-23T08:05:25.194Z,99997
2018-03-23T08:07:54.182Z,99998
2018-03-23T08:10:29.385Z,100000
2018-03-23T08:12:57.817Z,99999
2018-03-23T08:15:26.386Z,99993
2018-03-23T08:17:54.762Z,99992
2018-03-23T08:20:28.434Z,99990
2018-03-23T08:22:56.693Z,99996
2018-03-23T08:25:24.952Z,99994
2018-03-23T08:27:53.227Z,99991
2018-03-23T08:30:21.552Z,99987
2018-03-23T08:32:51.127Z,99984
2018-03-23T08:35:19.307Z,99985
2018-03-23T08:37:47.534Z,99990
2018-03-23T08:40:15.795Z,99991
2018-03-23T08:42:44.718Z,99985
2018-03-23T08:45:13.046Z,99987
2018-03-23T08:47:41.281Z,99982
2018-03-23T08:50:09.548Z,99979
2018-03-23T08:52:37.807Z,99979
2018-03-23T08:55:06.907Z,99979
2018-03-23T08:57:39.027Z,99974
2018-03-23T09:00:07.493Z,99968
2018-03-23T09:02:35.713Z,99975
2018-03-23T09:05:03.887Z,99975
2018-03-23T09:07:32.999Z,99971
2018-03-23T09:10:01.226Z,99971
2018-03-23T09:12:30.466Z,99965
2018-03-23T09:14:58.789Z,99959
2018-03-23T09:17:27.796Z,99958
2018-03-23T09:19:56.077Z,99963
2018-03-23T09:22:25.124Z,99963
2018-03-23T09:24:53.458Z,99965
2018-03-23T09:27:21.665Z,99958
2018-03-23T09:29:49.842Z,99955
2018-03-23T09:32:18.056Z,99956
2018-03-23T09:34:46.281Z,99963
2018-03-23T09:37:14.581Z,99962
2018-03-23T09:39:43.496Z,99952
2018-03-23T09:42:11.751Z,99959
2018-03-23T09:44:40.002Z,99962
2018-03-23T09:47:08.214Z,99960
2018-03-23T09:49:36.388Z,99951
2018-03-23T09:52:04.564Z,99954
2018-03-23T09:54:32.950Z,99950
2018-03-23T09:57:02.683Z,99953
2018-03-23T09:59:34.864Z,99951
2018-03-23T10:02:03.109Z,99947
2018-03-23T10:04:31.505Z,99952
2018-03-23T10:07:29.152Z,99951
2018-03-23T10:09:59.565Z,99942
2018-03-23T10:12:27.950Z,99945
2018-03-23T10:14:57.090Z,99945
2018-03-23T10:17:25.445Z,99938
2018-03-23T10:19:53.799Z,99943
2018-03-23T10:22:22.155Z,99937
2018-03-23T10:24:50.519Z,99930
2018-03-23T10:27:18.731Z,99929
2018-03-23T10:29:47.763Z,99925
2018-03-23T10:32:15.960Z,99920
2018-03-23T10:34:44.268Z,99916
2018-03-23T10:37:13.238Z,99913
2018-03-23T10:39:41.517Z,99919
2018-03-23T10:42:09.750Z,99915
2018-03-23T10:44:37.977Z,99916
2018-03-23T10:47:06.335Z,99911
2018-03-23T10:49:34.597Z,99909
2018-03-23T10:52:03.103Z,99909
2018-03-23T10:54:31.297Z,99902
2018-03-23T10:57:00.271Z,99898
2018-03-23T10:59:28.550Z,99902
2018-03-23T11:02:02.075Z,99894
2018-03-23T11:05:05.103Z,99903
2018-03-23T11:07:33.367Z,99900
2018-03-23T11:10:01.559Z,99894
2018-03-23T11:12:29.834Z,99893
2018-03-23T11:14:58.050Z,99888
2018-03-23T11:17:27.051Z,99886
2018-03-23T11:19:55.695Z,99892
2018-03-23T11:22:23.921Z,99886
2018-03-23T11:24:52.226Z,99884
2018-03-23T11:27:20.463Z,99881
2018-03-23T11:29:49.513Z,99881
2018-03-23T11:32:17.732Z,99884
2018-03-23T11:34:45.919Z,99876
2018-03-23T11:37:14.154Z,99873
2018-03-23T11:39:43.163Z,99869
2018-03-23T11:42:12.877Z,99861
2018-03-23T11:44:41.118Z,99859
2018-03-23T11:47:09.352Z,99847
2018-03-23T11:49:37.733Z,99854
2018-03-23T11:52:05.919Z,99857
2018-03-23T11:54:34.139Z,99847
2018-03-23T11:57:03.089Z,99840
2018-03-23T11:59:31.311Z,99838
2018-03-23T12:02:00.367Z,99841
2018-03-23T12:04:29.600Z,99839
2018-03-23T12:06:57.948Z,99832
2018-03-23T12:09:26.167Z,99826
2018-03-23T12:11:54.424Z,99822
2018-03-23T12:14:23.674Z,99818
2018-03-23T12:16:51.946Z,99809
2018-03-23T12:19:20.257Z,99809
2018-03-23T12:21:48.498Z,99817
2018-03-23T12:24:16.727Z,99805
2018-03-23T12:26:46.067Z,99804
2018-03-23T12:29:14.291Z,99802
2018-03-23T12:31:42.793Z,99799
2018-03-23T12:34:11.116Z,99796
2018-03-23T12:36:40.280Z,99801
2018-03-23T12:39:08.634Z,99793
2018-03-23T12:41:37.583Z,99744
2018-03-23T12:44:05.833Z,99779
2018-03-23T12:46:34.010Z,99780
2018-03-23T12:49:03.021Z,99772
2018-03-23T12:51:31.287Z,99778
2018-03-23T12:53:59.504Z,99782
2018-03-23T12:56:27.773Z,99776
2018-03-23T12:58:56.074Z,99769
2018-03-23T13:01:24.350Z,99766
2018-03-23T13:03:52.545Z,99761
2018-03-23T13:06:20.775Z,99761
2018-03-23T13:08:48.966Z,99763
2018-03-23T13:11:17.950Z,99753
2018-03-23T13:13:47.666Z,99759
2018-03-23T13:16:15.875Z,99760
2018-03-23T13:18:44.127Z,99751
2018-03-23T13:21:12.376Z,99752
2018-03-23T13:23:41.380Z,99738
2018-03-23T13:26:09.626Z,99736
2018-03-23T13:28:37.836Z,99742
2018-03-23T13:31:06.035Z,99738
2018-03-23T13:33:34.559Z,99744
2018-03-23T13:36:05.559Z,99739
2018-03-23T13:38:33.873Z,99734
2018-03-23T13:41:02.777Z,99737
2018-03-23T13:43:31.732Z,99735
2018-03-23T13:46:00.152Z,99731
2018-03-23T13:48:28.495Z,99734
2018-03-23T13:50:56.764Z,99735
2018-03-23T13:53:25.025Z,99735
2018-03-23T13:55:53.174Z,99729
2018-03-23T13:58:21.538Z,99725
2018-03-23T14:00:55.230Z,99722
2018-03-23T14:03:24.311Z,99719
2018-03-23T14:05:53.310Z,99724
2018-03-23T14:08:21.571Z,99714
2018-03-23T14:10:49.867Z,99708
2018-03-23T14:13:18.942Z,99711
2018-03-23T14:15:47.968Z,99717
2018-03-23T14:18:16.285Z,99710
2018-03-23T14:20:44.512Z,99714
2018-03-23T14:23:13.695Z,99715
2018-03-23T14:25:42.735Z,99717
2018-03-23T14:28:10.892Z,99715
2018-03-23T14:30:39.176Z,99708
2018-03-23T14:33:07.372Z,99707
2018-03-23T14:35:35.568Z,99700
2018-03-23T14:38:04.873Z,99694
2018-03-23T14:40:33.178Z,99706
2018-03-23T14:43:01.637Z,99701
2018-03-23T14:45:29.856Z,99705
2018-03-23T14:47:58.118Z,99706
2018-03-23T14:50:26.318Z,99690
2018-03-23T14:52:54.564Z,99694
2018-03-23T14:55:22.755Z,99685
2018-03-23T14:57:50.974Z,99683
2018-03-23T15:00:19.941Z,99675
2018-03-23T15:02:48.122Z,99676
2018-03-23T15:05:16.322Z,99670
2018-03-23T15:07:45.269Z,99672
2018-03-23T15:10:13.516Z,99671
2018-03-23T15:12:41.741Z,99668
2018-03-23T15:15:09.940Z,99664
2018-03-23T15:17:38.141Z,99659
2018-03-23T15:20:06.300Z,99655
2018-03-23T15:22:34.496Z,99660
2018-03-23T15:25:02.682Z,99648
2018-03-23T15:27:30.988Z,99647
2018-03-23T15:29:59.144Z,99655
2018-03-23T15:32:27.318Z,99655
2018-03-23T15:34:55.552Z,99664
2018-03-23T15:37:24.700Z,99651
2018-03-23T15:39:52.963Z,99650
2018-03-23T15:42:21.126Z,99642
2018-03-23T15:44:49.331Z,99648
2018-03-23T15:47:18.402Z,99649
2018-03-23T15:49:46.630Z,99656
2018-03-23T15:52:14.950Z,99650
2018-03-23T15:54:43.195Z,99660
2018-03-23T15:57:11.400Z,99656
2018-03-23T15:59:39.614Z,99653
2018-03-23T16:02:08.599Z,99653
2018-03-23T16:04:36.779Z,99650
2018-03-23T16:07:05.797Z,99659
2018-03-23T16:09:33.981Z,99650
2018-03-23T16:12:02.178Z,99651
2018-03-23T16:14:30.396Z,99651
2018-03-23T16:16:59.356Z,99643
2018-03-23T16:19:27.696Z,99647
2018-03-23T16:21:55.964Z,99650
2018-03-23T16:24:24.225Z,99652
2018-03-23T16:26:52.582Z,99656
2018-03-23T16:29:21.567Z,99653
2018-03-23T16:31:49.802Z,99659
2018-03-23T16:34:18.124Z,99653
2018-03-23T16:36:46.370Z,99644
2018-03-23T16:39:14.604Z,99639
2018-03-23T16:41:42.864Z,99646
2018-03-23T16:44:11.204Z,99644
2018-03-23T16:46:39.537Z,99640
2018-03-23T16:49:07.802Z,99639
2018-03-23T16:51:36.276Z,99641
2018-03-23T16:54:05.307Z,99633
2018-03-23T16:56:33.549Z,99644
2018-03-23T16:59:01.774Z,99640
2018-03-23T17:01:30.092Z,99639
2018-03-23T17:03:58.373Z,99640
2018-03-23T17:06:26.564Z,99652
2018-03-23T17:08:54.779Z,99657
2018-03-23T17:11:23.026Z,99662
2018-03-23T17:13:51.230Z,99652
2018-03-23T17:16:19.793Z,99653
2018-03-23T17:18:48.037Z,99654
2018-03-23T17:21:16.213Z,99648
2018-03-23T17:23:44.410Z,99654
2018-03-23T17:26:12.623Z,99662
2018-03-23T17:28:41.609Z,99648
2018-03-23T17:31:09.902Z,99653
2018-03-23T17:33:38.881Z,99658
2018-03-23T17:36:07.868Z,99659
2018-03-23T17:38:36.883Z,99658
2018-03-23T17:41:05.697Z,99654
2018-03-23T17:43:33.880Z,99652
2018-03-23T17:46:02.124Z,99652
2018-03-23T17:48:30.370Z,99652
2018-03-23T17:50:59.346Z,99651
2018-03-23T17:53:27.676Z,99657
2018-03-23T17:55:55.911Z,99653
2018-03-23T17:58:24.209Z,99655
2018-03-23T18:00:53.309Z,99655
2018-03-23T18:03:21.514Z,99650
2018-03-23T18:05:49.807Z,99659
2018-03-23T18:08:18.093Z,99657
2018-03-23T18:10:46.338Z,99661
2018-03-23T18:13:14.534Z,99659
2018-03-23T18:15:42.863Z,99652
2018-03-23T18:18:11.072Z,99654
2018-03-23T18:20:39.245Z,99654
2018-03-23T18:23:07.493Z,99652
2018-03-23T18:25:35.803Z,99661
2018-03-23T18:28:03.964Z,99653
2018-03-23T18:30:32.145Z,99656
2018-03-23T18:33:00.448Z,99657
2018-03-23T18:35:28.650Z,99657
2018-03-23T18:37:56.855Z,99661
2018-03-23T18:40:25.122Z,99660
2018-03-23T18:42:53.492Z,99660
2018-03-23T18:45:21.731Z,99662
2018-03-23T18:47:50.777Z,99664
2018-03-23T18:50:19.077Z,99658
2018-03-23T18:52:47.379Z,99658
2018-03-23T18:55:16.424Z,99655
2018-03-23T18:57:44.624Z,99659
2018-03-23T19:00:13.509Z,99660
2018-03-23T19:02:41.786Z,99666
2018-03-23T19:05:09.996Z,99657
2018-03-23T19:07:38.987Z,99656
2018-03-23T19:10:07.307Z,99658
2018-03-23T19:12:35.573Z,99667
2018-03-23T19:15:03.787Z,99666
2018-03-23T19:17:31.986Z,99666
2018-03-23T19:20:00.392Z,99657
2018-03-23T19:22:28.580Z,99665
2018-03-23T19:24:56.896Z,99661
2018-03-23T19:27:25.121Z,99668
2018-03-23T19:29:53.385Z,99660
2018-03-23T19:32:21.591Z,99664
2018-03-23T19:34:49.820Z,99664
2018-03-23T19:37:18.800Z,99663
2018-03-23T19:39:46.989Z,99667
2018-03-23T19:42:15.205Z,99662
2018-03-23T19:44:44.244Z,99661
2018-03-23T19:47:13.218Z,99658
2018-03-23T19:49:41.469Z,99654
2018-03-23T19:52:09.650Z,99650
2018-03-23T19:54:37.850Z,99659
2018-03-23T19:57:06.852Z,99658
2018-03-23T19:59:35.139Z,99657
2018-03-23T20:02:03.368Z,99656
2018-03-23T20:04:31.641Z,99658
2018-03-23T20:06:59.887Z,99652
2018-03-23T20:09:28.068Z,99658
2018-03-23T20:11:56.264Z,99656
2018-03-23T20:14:24.515Z,99655
2018-03-23T20:16:52.815Z,99653
2018-03-23T20:19:21.578Z,99656
2018-03-23T20:21:50.136Z,99655
2018-03-23T20:24:26.063Z,99652
2018-03-23T20:27:03.818Z,99654
2018-03-23T20:29:36.221Z,99654
2018-03-23T20:32:13.722Z,99653
2018-03-23T20:34:44.647Z,99649
2018-03-23T20:37:13.664Z,99647
2018-03-23T20:39:42.775Z,99645
2018-03-23T20:42:12.164Z,99644
2018-03-23T20:44:40.976Z,99648
2018-03-23T20:47:10.007Z,99645
2018-03-23T20:49:43.103Z,99643
2018-03-23T20:52:12.312Z,99649
2018-03-23T20:54:41.402Z,99648
2018-03-23T20:57:09.649Z,99648
2018-03-23T20:59:37.838Z,99646
2018-03-23T21:02:06.111Z,99641
2018-03-23T21:04:35.127Z,99635
2018-03-23T21:07:04.150Z,99638
2018-03-23T21:09:32.402Z,99639
2018-03-23T21:12:01.353Z,99635
2018-03-23T21:14:29.542Z,99640
2018-03-23T21:16:57.849Z,99634
2018-03-23T21:19:26.050Z,99638
2018-03-23T21:21:54.246Z,99631
2018-03-23T21:24:22.454Z,99633
2018-03-23T21:26:50.693Z,99624
2018-03-23T21:29:18.898Z,99623
2018-03-23T21:31:47.883Z,99622
2018-03-23T21:34:16.081Z,99613
2018-03-23T21:36:44.335Z,99619
2018-03-23T21:39:13.421Z,99625
2018-03-23T21:41:41.587Z,99633
2018-03-23T21:44:09.770Z,99628
2018-03-23T21:46:37.963Z,99628
2018-03-23T21:49:06.969Z,99634
2018-03-23T21:51:35.248Z,99627
2018-03-23T21:54:03.453Z,99629
2018-03-23T21:56:31.731Z,99631
2018-03-23T21:58:59.951Z,99625
2018-03-23T22:01:29.003Z,99623
2018-03-23T22:03:57.361Z,99620
2018-03-23T22:06:25.570Z,99624
2018-03-23T22:08:53.745Z,99636
2018-03-23T22:11:21.947Z,99628
2018-03-23T22:13:50.951Z,99628
2018-03-23T22:16:19.200Z,99635
2018-03-23T22:18:47.463Z,99642
2018-03-23T22:21:15.721Z,99632
2018-03-23T22:23:43.976Z,99629
2018-03-23T22:26:12.163Z,99634
2018-03-23T22:28:40.379Z,99636
2018-03-23T22:31:08.733Z,99637
2018-03-23T22:33:36.914Z,99635
2018-03-23T22:36:05.129Z,99639
2018-03-23T22:38:33.460Z,99645
2018-03-23T22:41:01.699Z,99644
2018-03-23T22:43:29.955Z,99643
2018-03-23T22:45:58.199Z,99643
2018-03-23T22:48:27.175Z,99637
2018-03-23T22:50:55.608Z,99638
2018-03-23T22:53:23.909Z,99642
2018-03-23T22:55:52.182Z,99633
2018-03-23T22:58:20.461Z,99629
2018-03-23T23:00:48.664Z,99632
2018-03-23T23:03:17.007Z,99630
2018-03-23T23:05:45.216Z,99630
2018-03-23T23:08:13.391Z,99629
2018-03-23T23:10:41.686Z,99632
2018-03-23T23:13:09.903Z,99625
2018-03-23T23:15:38.202Z,99625
2018-03-23T23:18:06.434Z,99637
2018-03-23T23:20:34.598Z,99632
2018-03-23T23:23:02.765Z,99633
2018-03-23T23:25:31.091Z,99626
2018-03-23T23:27:59.331Z,99621
2018-03-23T23:30:27.536Z,99627
2018-03-23T23:32:55.847Z,99618
2018-03-23T23:35:24.803Z,99612
2018-03-23T23:37:53.055Z,99614
2018-03-23T23:40:21.312Z,99610
2018-03-23T23:42:49.704Z,99609
2018-03-23T23:45:17.923Z,99610
2018-03-23T23:47:46.200Z,99610
2018-03-23T23:50:14.454Z,99609
2018-03-23T23:52:42.641Z,99600
2018-03-23T23:55:10.911Z,99604
2018-03-23T23:57:39.188Z,99605
